createdAt,value
2019-04-29T00:05:49.516Z,72.90
2019-04-29T00:08:37.265Z,72.70
2019-04-29T00:11:24.169Z,72.40
2019-04-29T00:14:37.090Z,72.30
2019-04-29T00:17:41.539Z,72.00
2019-04-29T00:20:49.518Z,72.10
2019-04-29T00:24:03.219Z,72.20
2019-04-29T00:26:41.697Z,72.30
2019-04-29T00:30:02.474Z,72.50
2019-04-29T00:32:54.625Z,71.90
2019-04-29T00:36:01.808Z,71.80
2019-04-29T00:42:52.537Z,71.90
2019-04-29T00:46:06.497Z,71.80
2019-04-29T00:49:25.027Z,71.60
2019-04-29T00:52:28.032Z,71.60
2019-04-29T01:08:29.288Z,70.30
2019-04-29T01:11:24.858Z,70.00
2019-04-29T01:14:28.181Z,70.20
2019-04-29T01:17:29.882Z,69.90
2019-04-29T01:27:55.719Z,70.30
2019-04-29T01:35:28.210Z,70.00
2019-04-29T01:38:29.601Z,70.10
2019-04-29T01:44:54.667Z,70.70
2019-04-29T01:47:41.176Z,70.70
2019-04-29T01:50:41.210Z,70.70
2019-04-29T01:53:36.132Z,70.80
2019-04-29T01:56:27.990Z,70.90
2019-04-29T01:59:43.218Z,70.90
2019-04-29T02:02:34.554Z,71.00
2019-04-29T02:12:43.444Z,71.10
2019-04-29T02:22:55.263Z,71.70
2019-04-29T02:29:51.624Z,72.10
2019-04-29T02:36:29.747Z,72.00
2019-04-29T02:43:12.313Z,72.20
2019-04-29T02:46:18.353Z,72.00
2019-04-29T02:49:24.821Z,71.80
2019-04-29T02:52:50.545Z,71.70
2019-04-29T02:56:05.237Z,71.70
2019-04-29T02:59:22.537Z,71.60
2019-04-29T03:02:36.585Z,71.40
2019-04-29T03:20:11.530Z,72.20
2019-04-29T03:26:41.712Z,72.40
2019-04-29T03:29:41.288Z,72.60
2019-04-29T03:36:08.229Z,72.90
2019-04-29T03:43:07.129Z,73.00
2019-04-29T03:53:14.821Z,73.90
2019-04-29T03:56:29.390Z,73.80
2019-04-29T03:59:43.947Z,73.80
2019-04-29T04:03:04.643Z,74.00
2019-04-29T04:09:57.845Z,73.70
2019-04-29T04:20:12.552Z,73.70
2019-04-29T04:22:47.616Z,73.70
2019-04-29T04:25:19.297Z,73.90
2019-04-29T04:27:50.649Z,73.50
2019-04-29T04:30:22.260Z,72.90
2019-04-29T04:32:54.282Z,72.90
2019-04-29T04:35:25.309Z,72.70
2019-04-29T04:37:56.513Z,72.60
2019-04-29T04:40:37.792Z,72.70
2019-04-29T04:43:08.523Z,73.00
2019-04-29T04:45:39.406Z,73.30
2019-04-29T04:48:10.963Z,73.30
2019-04-29T04:50:41.118Z,73.50
2019-04-29T04:53:17.623Z,73.50
2019-04-29T04:55:50.935Z,73.50
2019-04-29T04:58:21.644Z,73.50
2019-04-29T05:00:52.231Z,73.30
2019-04-29T05:03:24.224Z,73.60
2019-04-29T05:05:54.900Z,73.70
2019-04-29T05:08:25.228Z,73.90
2019-04-29T05:10:57.846Z,73.70
2019-04-29T05:13:29.021Z,73.80
2019-04-29T05:16:02.614Z,73.90
2019-04-29T05:18:33.786Z,73.70
2019-04-29T05:21:09.667Z,73.60
2019-04-29T05:23:41.762Z,73.20
2019-04-29T05:26:12.320Z,73.00
2019-04-29T05:28:44.912Z,72.50
2019-04-29T05:31:15.283Z,72.30
2019-04-29T05:33:46.295Z,72.40
2019-04-29T05:36:38.213Z,72.20
2019-04-29T05:39:32.889Z,72.40
2019-04-29T05:42:07.772Z,72.40
2019-04-29T05:44:48.432Z,72.50
2019-04-29T05:47:27.690Z,72.40
2019-04-29T05:50:20.695Z,72.10
2019-04-29T05:53:16.134Z,72.00
2019-04-29T05:55:45.295Z,71.80
2019-04-29T05:58:18.352Z,71.60
2019-04-29T06:00:58.781Z,71.50
2019-04-29T06:03:29.272Z,72.00
2019-04-29T06:06:03.682Z,71.90
2019-04-29T06:08:38.569Z,71.90
2019-04-29T06:11:07.795Z,71.50
2019-04-29T06:13:40.619Z,71.40
2019-04-29T06:16:10.770Z,71.70
2019-04-29T06:18:43.252Z,71.50
2019-04-29T06:21:16.737Z,71.30
2019-04-29T06:23:47.248Z,71.10
2019-04-29T06:26:20.309Z,71.20
2019-04-29T06:28:50.229Z,71.00
2019-04-29T06:31:23.824Z,70.90
2019-04-29T06:33:53.837Z,71.10
2019-04-29T06:36:24.031Z,70.70
2019-04-29T06:38:53.820Z,70.90
2019-04-29T06:41:24.872Z,70.90
2019-04-29T06:44:00.556Z,70.70
2019-04-29T06:46:31.457Z,71.00
2019-04-29T06:49:10.309Z,70.80
2019-04-29T06:51:37.497Z,71.40
2019-04-29T06:54:07.544Z,71.50
2019-04-29T06:56:37.177Z,71.40
2019-04-29T06:59:07.460Z,71.70
2019-04-29T07:01:39.169Z,71.10
2019-04-29T07:04:15.119Z,71.40
2019-04-29T07:06:56.708Z,70.50
2019-04-29T07:09:16.816Z,70.10
2019-04-29T07:11:47.633Z,68.90
2019-04-29T07:14:17.600Z,69.40
2019-04-29T07:16:47.481Z,69.80
2019-04-29T07:19:17.836Z,69.60
2019-04-29T07:21:53.955Z,69.50
2019-04-29T07:24:25.076Z,68.60
2019-04-29T07:26:57.772Z,68.60
2019-04-29T07:29:32.115Z,68.30
2019-04-29T07:32:00.430Z,67.60
2019-04-29T07:34:33.772Z,67.90
2019-04-29T07:37:02.061Z,69.00
2019-04-29T07:39:33.508Z,66.90
2019-04-29T07:42:04.171Z,66.10
2019-04-29T07:44:48.889Z,65.50
2019-04-29T07:47:18.203Z,65.50
2019-04-29T07:49:51.381Z,65.30
2019-04-29T07:52:19.618Z,65.30
2019-04-29T07:54:55.035Z,65.40
2019-04-29T07:57:20.801Z,65.90
2019-04-29T07:59:52.475Z,66.00
2019-04-29T08:02:22.349Z,64.30
2019-04-29T08:04:52.947Z,64.60
2019-04-29T08:07:22.853Z,64.70
2019-04-29T08:09:53.101Z,64.30
2019-04-29T08:12:24.352Z,64.10
2019-04-29T08:14:58.532Z,63.30
2019-04-29T08:17:29.711Z,63.80
2019-04-29T08:20:05.283Z,63.50
2019-04-29T08:22:33.757Z,64.00
2019-04-29T08:25:05.522Z,63.30
2019-04-29T08:27:39.989Z,62.40
2019-04-29T08:30:11.468Z,64.00
2019-04-29T08:32:41.365Z,63.30
2019-04-29T08:35:11.247Z,63.10
2019-04-29T08:37:43.196Z,64.80
2019-04-29T08:40:16.319Z,62.40
2019-04-29T08:42:48.994Z,62.30
2019-04-29T08:45:43.926Z,62.70
2019-04-29T08:48:14.012Z,62.20
2019-04-29T08:50:45.461Z,61.90
2019-04-29T08:53:15.337Z,62.40
2019-04-29T08:55:44.835Z,61.40
2019-04-29T08:58:15.769Z,61.10
2019-04-29T09:00:45.900Z,61.40
2019-04-29T09:03:18.809Z,61.20
2019-04-29T09:06:03.975Z,60.80
2019-04-29T09:08:19.761Z,60.00
2019-04-29T09:10:49.872Z,58.90
2019-04-29T09:13:23.914Z,59.80
2019-04-29T09:15:54.036Z,60.00
2019-04-29T09:18:23.817Z,59.80
2019-04-29T09:20:54.880Z,59.40
2019-04-29T09:23:27.490Z,60.10
2019-04-29T09:26:11.584Z,59.70
2019-04-29T09:28:41.979Z,59.50
2019-04-29T09:31:12.255Z,59.00
2019-04-29T09:34:06.452Z,57.90
2019-04-29T09:36:29.866Z,59.90
2019-04-29T09:39:02.581Z,58.60
2019-04-29T09:41:45.309Z,57.60
2019-04-29T09:44:40.266Z,58.20
2019-04-29T09:47:14.123Z,59.30
2019-04-29T09:49:44.727Z,60.20
2019-04-29T09:52:14.560Z,57.70
2019-04-29T09:54:44.701Z,57.90
2019-04-29T09:57:15.058Z,58.40
2019-04-29T09:59:49.905Z,59.20
2019-04-29T10:02:39.572Z,60.10
2019-04-29T10:05:29.514Z,58.00
2019-04-29T10:07:59.916Z,54.90
2019-04-29T10:10:30.337Z,55.50
2019-04-29T10:13:00.133Z,55.10
2019-04-29T10:15:44.695Z,53.50
2019-04-29T10:18:25.056Z,54.90
2019-04-29T10:20:59.181Z,55.80
2019-04-29T10:23:33.017Z,56.90
2019-04-29T10:26:03.018Z,56.90
2019-04-29T10:28:35.663Z,57.50
2019-04-29T10:31:06.549Z,56.90
2019-04-29T10:33:36.686Z,57.40
2019-04-29T10:36:06.427Z,57.80
2019-04-29T10:38:40.390Z,57.40
2019-04-29T10:41:26.225Z,57.60
2019-04-29T10:44:31.160Z,56.60
2019-04-29T10:47:25.120Z,57.30
2019-04-29T10:50:01.741Z,58.60
2019-04-29T10:52:34.445Z,57.20
2019-04-29T10:55:04.401Z,56.10
2019-04-29T10:57:34.213Z,55.70
2019-04-29T11:00:16.928Z,56.40
2019-04-29T11:02:49.213Z,55.90
2019-04-29T11:05:35.531Z,57.60
2019-04-29T11:08:33.867Z,57.90
2019-04-29T11:11:06.993Z,55.90
2019-04-29T11:13:45.649Z,56.10
2019-04-29T11:16:12.144Z,56.40
2019-04-29T11:18:43.049Z,56.90
2019-04-29T11:21:12.952Z,56.70
2019-04-29T11:24:05.131Z,56.80
2019-04-29T11:27:11.212Z,56.80
2019-04-29T11:29:35.579Z,56.60
2019-04-29T11:32:05.695Z,56.20
2019-04-29T11:34:56.938Z,55.30
2019-04-29T11:37:27.950Z,55.80
2019-04-29T11:39:57.523Z,55.10
2019-04-29T11:42:26.999Z,54.60
2019-04-29T11:44:57.084Z,54.50
2019-04-29T11:47:27.618Z,54.70
2019-04-29T11:50:07.487Z,54.00
2019-04-29T11:52:35.926Z,54.30
2019-04-29T11:55:07.009Z,55.10
2019-04-29T11:57:42.292Z,55.00
2019-04-29T12:00:22.393Z,54.30
2019-04-29T12:02:55.795Z,54.80
2019-04-29T12:05:46.044Z,55.30
2019-04-29T12:08:18.514Z,54.10
2019-04-29T12:11:05.640Z,54.20
2019-04-29T12:13:32.917Z,55.50
2019-04-29T12:16:08.126Z,55.00
2019-04-29T12:18:43.707Z,55.10
2019-04-29T12:21:19.812Z,54.60
2019-04-29T12:23:52.146Z,54.50
2019-04-29T12:26:21.382Z,54.00
2019-04-29T12:28:53.005Z,53.90
2019-04-29T12:31:32.441Z,53.50
2019-04-29T12:34:13.443Z,53.70
2019-04-29T12:36:56.002Z,53.60
2019-04-29T12:39:43.405Z,53.90
2019-04-29T12:42:24.310Z,54.80
2019-04-29T12:45:01.539Z,54.90
2019-04-29T12:47:34.475Z,55.80
2019-04-29T12:50:05.358Z,55.80
2019-04-29T12:52:35.612Z,55.70
2019-04-29T12:55:20.092Z,56.30
2019-04-29T12:57:40.635Z,56.70
2019-04-29T13:00:12.580Z,57.10
2019-04-29T13:03:17.254Z,57.80
2019-04-29T13:06:04.771Z,57.40
2019-04-29T13:08:39.017Z,57.60
2019-04-29T13:11:10.186Z,57.70
2019-04-29T13:13:40.110Z,58.10
2019-04-29T13:16:29.920Z,58.70
2019-04-29T13:19:20.831Z,58.20
2019-04-29T13:21:51.169Z,58.80
2019-04-29T13:24:25.114Z,58.50
2019-04-29T13:26:52.881Z,57.30
2019-04-29T13:29:27.194Z,57.70
2019-04-29T13:31:55.307Z,57.50
2019-04-29T13:34:33.572Z,57.60
2019-04-29T13:37:08.263Z,57.10
2019-04-29T13:39:39.686Z,55.60
2019-04-29T13:42:09.092Z,54.40
2019-04-29T13:44:42.579Z,55.50
2019-04-29T13:47:29.091Z,56.60
2019-04-29T13:50:18.900Z,56.80
2019-04-29T13:52:42.902Z,57.20
2019-04-29T13:55:20.320Z,57.60
2019-04-29T13:57:49.659Z,57.60
2019-04-29T14:00:36.508Z,57.80
2019-04-29T14:03:11.758Z,58.30
2019-04-29T14:05:41.884Z,58.40
2019-04-29T14:08:11.855Z,58.60
2019-04-29T14:10:41.541Z,58.90
2019-04-29T14:13:16.357Z,59.20
2019-04-29T14:15:43.536Z,59.40
2019-04-29T14:18:13.708Z,59.90
2019-04-29T14:20:47.236Z,60.00
2019-04-29T14:23:16.469Z,59.90
2019-04-29T14:25:45.999Z,60.30
2019-04-29T14:28:16.010Z,60.50
2019-04-29T14:30:47.667Z,60.60
2019-04-29T14:33:19.337Z,61.00
2019-04-29T14:35:59.437Z,61.40
2019-04-29T14:38:28.299Z,61.10
2019-04-29T14:40:58.369Z,61.20
2019-04-29T14:43:45.712Z,61.70
2019-04-29T14:46:28.635Z,61.50
2019-04-29T14:49:06.195Z,61.30
2019-04-29T14:51:38.008Z,61.60
2019-04-29T14:54:08.617Z,61.80
2019-04-29T14:56:39.859Z,61.20
2019-04-29T14:59:09.447Z,62.00
2019-04-29T15:02:02.039Z,61.70
2019-04-29T15:04:37.591Z,62.20
2019-04-29T15:07:07.231Z,62.00
2019-04-29T15:09:46.361Z,62.40
2019-04-29T15:12:24.617Z,61.90
2019-04-29T15:15:01.437Z,62.30
2019-04-29T15:17:53.767Z,62.40
2019-04-29T15:20:34.288Z,62.20
2019-04-29T15:23:05.863Z,62.30
2019-04-29T15:25:36.216Z,62.60
2019-04-29T15:28:06.240Z,62.80
2019-04-29T15:30:37.309Z,62.20
2019-04-29T15:33:08.068Z,62.00
2019-04-29T15:35:37.623Z,61.60
2019-04-29T15:38:07.709Z,62.20
2019-04-29T15:40:42.834Z,61.60
2019-04-29T15:43:08.936Z,61.30
2019-04-29T15:45:40.691Z,61.50
2019-04-29T15:48:10.670Z,61.70
2019-04-29T15:50:40.721Z,61.10
2019-04-29T15:53:10.461Z,60.60
2019-04-29T15:55:41.331Z,60.90
2019-04-29T15:58:12.104Z,61.00
2019-04-29T16:00:41.668Z,61.20
2019-04-29T16:03:12.710Z,60.80
2019-04-29T16:06:20.506Z,61.70
2019-04-29T16:09:04.079Z,61.10
2019-04-29T16:11:50.869Z,61.00
2019-04-29T16:14:22.840Z,61.50
2019-04-29T16:16:52.354Z,60.40
2019-04-29T16:19:22.111Z,59.70
2019-04-29T16:21:52.204Z,60.10
2019-04-29T16:24:27.161Z,60.80
2019-04-29T16:26:54.614Z,60.20
2019-04-29T16:29:24.127Z,60.50
2019-04-29T16:31:54.952Z,60.50
2019-04-29T16:34:25.496Z,60.60
2019-04-29T16:36:55.371Z,60.10
2019-04-29T16:39:25.273Z,60.80
2019-04-29T16:42:30.865Z,60.70
2019-04-29T16:45:06.291Z,60.30
2019-04-29T16:47:35.497Z,60.00
2019-04-29T16:50:07.709Z,60.20
2019-04-29T16:52:44.190Z,60.60
2019-04-29T16:55:10.695Z,61.00
2019-04-29T16:57:40.673Z,61.50
2019-04-29T17:02:43.095Z,60.70
2019-04-29T17:05:13.897Z,60.90
2019-04-29T17:07:45.040Z,61.50
2019-04-29T17:10:28.204Z,61.60
2019-04-29T17:12:58.749Z,61.40
2019-04-29T17:15:29.233Z,62.10
2019-04-29T17:17:59.264Z,63.40
2019-04-29T17:20:30.796Z,64.80
2019-04-29T17:23:02.648Z,64.90
2019-04-29T17:25:33.858Z,64.70
2019-04-29T17:28:28.845Z,64.60
2019-04-29T17:31:12.314Z,65.70
2019-04-29T17:33:50.102Z,64.90
2019-04-29T17:35:17.817Z,60.40
2019-04-29T17:36:23.809Z,64.70
2019-04-29T17:38:52.834Z,63.00
2019-04-29T17:41:23.177Z,62.80
2019-04-29T17:44:22.214Z,63.30
2019-04-29T17:47:02.053Z,63.10
2019-04-29T17:49:42.375Z,63.20
2019-04-29T17:52:18.671Z,64.10
2019-04-29T17:54:51.118Z,65.60
2019-04-29T17:57:47.140Z,64.60
2019-04-29T18:00:43.869Z,63.90
2019-04-29T18:03:47.362Z,64.30
2019-04-29T18:06:24.232Z,65.00
2019-04-29T18:09:22.824Z,65.40
2019-04-29T18:11:55.706Z,66.10
2019-04-29T18:14:32.526Z,66.00
2019-04-29T18:16:57.683Z,66.70
2019-04-29T18:19:34.884Z,66.50
2019-04-29T18:22:34.932Z,66.50
2019-04-29T18:25:15.325Z,66.60
2019-04-29T18:27:49.030Z,67.90
2019-04-29T18:30:27.351Z,66.90
2019-04-29T18:32:51.074Z,66.30
2019-04-29T18:35:21.171Z,66.20
2019-04-29T18:37:51.193Z,66.50
2019-04-29T18:40:21.783Z,66.90
2019-04-29T18:42:51.615Z,67.70
2019-04-29T18:45:25.504Z,67.20
2019-04-29T18:47:53.927Z,67.50
2019-04-29T18:50:29.544Z,67.90
2019-04-29T18:52:58.533Z,68.10
2019-04-29T18:55:28.632Z,68.10
2019-04-29T18:58:00.321Z,68.00
2019-04-29T19:00:30.046Z,68.20
2019-04-29T19:03:01.185Z,68.20
2019-04-29T19:05:40.516Z,68.80
2019-04-29T19:08:14.337Z,68.80
2019-04-29T19:10:43.070Z,68.80
2019-04-29T19:13:16.510Z,68.70
2019-04-29T19:15:48.377Z,69.00
2019-04-29T19:18:21.172Z,69.40
2019-04-29T19:20:52.678Z,69.50
2019-04-29T19:23:24.614Z,69.30
2019-04-29T19:25:55.410Z,69.10
2019-04-29T19:28:31.125Z,69.10
2019-04-29T19:31:03.263Z,69.60
2019-04-29T19:33:35.070Z,69.80
2019-04-29T19:36:02.480Z,70.00
2019-04-29T19:38:32.850Z,69.70
2019-04-29T19:41:03.824Z,69.80
2019-04-29T19:43:36.080Z,70.00
2019-04-29T19:46:07.277Z,70.10
2019-04-29T19:48:37.195Z,70.10
2019-04-29T19:51:18.365Z,70.40
2019-04-29T19:53:42.555Z,70.70
2019-04-29T19:56:20.911Z,70.90
2019-04-29T19:58:45.862Z,70.60
2019-04-29T20:01:26.475Z,70.90
2019-04-29T20:04:17.484Z,71.10
2019-04-29T20:06:48.472Z,71.20
2019-04-29T20:09:23.946Z,71.30
2019-04-29T20:11:55.833Z,71.60
2019-04-29T20:14:31.271Z,71.90
2019-04-29T20:17:19.084Z,72.00
2019-04-29T20:20:05.446Z,72.00
2019-04-29T20:22:37.376Z,71.80
2019-04-29T20:25:08.805Z,72.10
2019-04-29T20:27:42.970Z,71.90
2019-04-29T20:30:19.338Z,71.60
2019-04-29T20:32:46.216Z,72.20
2019-04-29T20:35:18.298Z,71.60
2019-04-29T20:37:55.729Z,71.50
2019-04-29T20:40:22.385Z,71.50
2019-04-29T20:42:53.618Z,71.50
2019-04-29T20:45:28.710Z,71.70
2019-04-29T20:47:57.565Z,71.40
2019-04-29T20:50:28.224Z,71.30
2019-04-29T20:53:30.770Z,71.30
2019-04-29T20:56:10.321Z,71.20
2019-04-29T20:58:36.062Z,71.30
2019-04-29T21:01:11.265Z,71.70
2019-04-29T21:03:48.465Z,71.80
2019-04-29T21:06:15.078Z,72.10
2019-04-29T21:08:51.161Z,72.30
2019-04-29T21:11:27.454Z,72.50
2019-04-29T21:14:12.446Z,72.50
2019-04-29T21:16:45.442Z,72.50
2019-04-29T21:19:16.710Z,72.50
2019-04-29T21:21:47.810Z,72.80
2019-04-29T21:24:19.170Z,72.70
2019-04-29T21:26:49.911Z,72.70
2019-04-29T21:29:20.830Z,72.60
2019-04-29T21:31:58.388Z,72.40
2019-04-29T21:34:29.654Z,72.60
2019-04-29T21:37:18.769Z,72.80
2019-04-29T21:40:18.741Z,72.90
2019-04-29T21:42:57.847Z,72.80
2019-04-29T21:45:35.712Z,72.80
2019-04-29T21:48:07.356Z,72.80
2019-04-29T21:50:38.201Z,72.80
2019-04-29T21:53:09.429Z,72.70
2019-04-29T21:55:39.799Z,72.50
2019-04-29T21:58:10.153Z,72.60
2019-04-29T22:00:40.390Z,72.80
2019-04-29T22:03:10.483Z,72.70
2019-04-29T22:05:40.870Z,72.90
2019-04-29T22:08:11.981Z,73.20
2019-04-29T22:10:42.473Z,73.30
2019-04-29T22:13:12.757Z,73.40
2019-04-29T22:15:42.913Z,73.10
2019-04-29T22:18:15.567Z,73.10
2019-04-29T22:20:45.558Z,73.30
2019-04-29T22:23:17.385Z,73.60
2019-04-29T22:25:47.834Z,73.60
2019-04-29T22:28:19.804Z,73.40
2019-04-29T22:30:54.934Z,73.20
2019-04-29T22:33:25.348Z,73.20
2019-04-29T22:35:55.896Z,73.60
2019-04-29T22:38:27.321Z,73.80
2019-04-29T22:41:00.011Z,74.00
2019-04-29T22:43:44.611Z,74.00
2019-04-29T22:46:17.348Z,74.00
2019-04-29T22:48:48.788Z,73.80
2019-04-29T22:51:19.177Z,73.10
2019-04-29T22:53:49.516Z,72.80
2019-04-29T22:56:20.171Z,72.90
2019-04-29T22:58:50.414Z,72.90
2019-04-29T23:01:21.825Z,72.90
2019-04-29T23:03:55.334Z,72.90
2019-04-29T23:06:26.255Z,73.10
2019-04-29T23:08:56.890Z,72.90
2019-04-29T23:11:27.891Z,72.90
2019-04-29T23:14:01.710Z,72.90
2019-04-29T23:16:31.550Z,73.20
2019-04-29T23:19:01.505Z,73.40
2019-04-29T23:22:02.549Z,73.60
2019-04-29T23:25:05.572Z,73.70
2019-04-29T23:27:36.062Z,73.70
2019-04-29T23:30:07.285Z,73.70
2019-04-29T23:32:39.502Z,73.80
2019-04-29T23:35:10.058Z,73.60
2019-04-29T23:37:40.608Z,73.50
2019-04-29T23:40:10.316Z,73.40
2019-04-29T23:42:43.664Z,73.40
2019-04-29T23:45:14.541Z,73.50
2019-04-29T23:47:46.864Z,73.50
2019-04-29T23:50:18.763Z,73.60
2019-04-29T23:52:51.702Z,73.90
2019-04-29T23:55:20.384Z,74.00
2019-04-29T23:58:08.018Z,74.00
